createdAt,value
2017-11-09T00:01:09.691Z,39.23
2017-11-09T00:03:35.800Z,37.83
2017-11-09T00:09:02.034Z,50.67
2017-11-09T00:11:28.578Z,30.50
2017-11-09T00:13:54.649Z,43.63
2017-11-09T00:16:20.747Z,38.57
2017-11-09T00:18:46.856Z,43.03
2017-11-09T00:21:12.950Z,38.97
2017-11-09T00:23:39.492Z,39.83
2017-11-09T00:26:05.577Z,47.60
2017-11-09T00:28:31.683Z,44.83
2017-11-09T00:30:57.775Z,37.43
2017-11-09T00:33:23.951Z,41.00
2017-11-09T00:35:50.411Z,41.97
2017-11-09T00:38:16.494Z,40.03
2017-11-09T00:40:42.576Z,40.20
2017-11-09T00:43:08.671Z,42.50
2017-11-09T00:45:34.759Z,40.30
2017-11-09T00:48:01.309Z,40.27
2017-11-09T00:50:27.401Z,42.93
2017-11-09T00:52:53.458Z,45.43
2017-11-09T00:55:19.557Z,44.73
2017-11-09T00:57:45.671Z,46.43
2017-11-09T01:00:12.119Z,41.17
2017-11-09T01:02:38.220Z,42.60
2017-11-09T01:05:04.482Z,48.37
2017-11-09T01:07:31.035Z,39.20
2017-11-09T01:09:57.099Z,39.20
2017-11-09T01:12:23.180Z,42.27
2017-11-09T01:14:49.258Z,39.10
2017-11-09T01:17:15.350Z,41.73
2017-11-09T01:19:41.880Z,40.83
2017-11-09T01:22:07.956Z,41.73
2017-11-09T01:24:34.112Z,38.50
2017-11-09T01:27:00.212Z,37.07
2017-11-09T01:29:26.222Z,39.07
2017-11-09T01:31:52.705Z,39.00
2017-11-09T01:34:18.804Z,46.47
2017-11-09T01:36:44.832Z,46.30
2017-11-09T01:39:10.925Z,40.23
2017-11-09T01:41:36.965Z,39.70
2017-11-09T01:44:03.431Z,46.23
2017-11-09T01:46:29.523Z,36.30
2017-11-09T01:48:55.619Z,40.80
2017-11-09T01:51:21.737Z,30.80
2017-11-09T01:53:47.897Z,40.73
2017-11-09T01:56:14.486Z,35.90
2017-11-09T01:58:40.565Z,37.67
2017-11-09T02:01:06.676Z,35.67
2017-11-09T02:03:32.713Z,34.13
2017-11-09T02:05:58.800Z,43.43
2017-11-09T02:08:25.255Z,42.90
2017-11-09T02:10:51.300Z,34.00
2017-11-09T02:13:17.333Z,33.10
2017-11-09T02:15:43.431Z,34.50
2017-11-09T02:18:09.475Z,38.97
2017-11-09T02:20:35.547Z,37.60
2017-11-09T02:23:01.604Z,39.40
2017-11-09T02:25:27.628Z,36.13
2017-11-09T02:27:53.695Z,38.87
2017-11-09T02:30:19.769Z,34.83
2017-11-09T02:32:46.203Z,34.97
2017-11-09T02:46:34.279Z,35.50
2017-11-09T02:49:00.776Z,33.50
2017-11-09T02:51:26.815Z,31.90
2017-11-09T02:53:52.847Z,38.97
2017-11-09T02:56:18.962Z,30.40
2017-11-09T02:58:45.024Z,33.10
2017-11-09T03:01:11.523Z,39.33
2017-11-09T03:03:37.573Z,38.43
2017-11-09T03:06:03.642Z,34.83
2017-11-09T03:08:30.096Z,36.30
2017-11-09T03:10:56.144Z,38.80
2017-11-09T03:13:22.229Z,32.93
2017-11-09T03:15:48.348Z,33.33
2017-11-09T03:18:14.438Z,37.43
2017-11-09T03:20:40.792Z,32.93
2017-11-09T03:23:06.859Z,34.97
2017-11-09T03:25:32.927Z,31.67
2017-11-09T03:27:59.006Z,32.53
2017-11-09T03:30:25.069Z,29.63
2017-11-09T03:32:51.481Z,32.43
2017-11-09T03:35:17.623Z,33.00
2017-11-09T03:37:43.708Z,36.10
2017-11-09T03:40:09.912Z,34.07
2017-11-09T03:42:35.988Z,37.33
2017-11-09T03:45:02.421Z,36.80
2017-11-09T03:47:28.512Z,36.83
2017-11-09T03:49:54.647Z,33.37
2017-11-09T03:52:20.728Z,38.50
2017-11-09T03:54:46.803Z,34.00
2017-11-09T03:57:13.272Z,37.67
2017-11-09T03:59:39.346Z,36.97
2017-11-09T04:02:05.468Z,38.30
2017-11-09T04:04:31.599Z,42.33
2017-11-09T04:06:57.687Z,43.43
2017-11-09T04:09:24.140Z,40.77
2017-11-09T04:11:50.219Z,38.70
2017-11-09T04:14:16.313Z,43.97
2017-11-09T04:16:42.791Z,35.17
2017-11-09T04:19:08.907Z,40.23
2017-11-09T04:21:35.038Z,42.37
2017-11-09T04:24:01.132Z,40.20
2017-11-09T04:26:27.221Z,46.00
2017-11-09T04:28:53.745Z,39.63
2017-11-09T04:31:19.853Z,41.40
2017-11-09T04:33:45.965Z,37.43
2017-11-09T04:36:12.053Z,45.30
2017-11-09T04:38:38.175Z,43.97
2017-11-09T04:41:04.596Z,48.43
2017-11-09T04:43:30.674Z,39.57
2017-11-09T04:45:56.779Z,41.93
2017-11-09T04:48:23.263Z,45.07
2017-11-09T04:50:49.331Z,37.43
2017-11-09T04:53:15.487Z,41.00
2017-11-09T04:55:41.638Z,36.50
2017-11-09T04:58:07.680Z,36.63
2017-11-09T05:00:34.136Z,60.53
2017-11-09T05:03:00.204Z,49.27
2017-11-09T05:05:26.311Z,60.47
2017-11-09T05:07:52.424Z,50.93
2017-11-09T05:10:18.488Z,35.60
2017-11-09T05:12:44.964Z,38.27
2017-11-09T05:15:11.041Z,39.20
2017-11-09T05:17:37.143Z,33.27
2017-11-09T05:20:03.440Z,31.80
2017-11-09T05:22:29.559Z,37.03
2017-11-09T05:24:56.004Z,29.63
2017-11-09T05:27:22.079Z,32.73
2017-11-09T05:29:48.185Z,38.03
2017-11-09T05:32:14.714Z,36.10
2017-11-09T05:34:40.808Z,33.17
2017-11-09T05:37:06.875Z,34.27
2017-11-09T05:39:33.303Z,40.53
2017-11-09T05:41:59.388Z,32.93
2017-11-09T05:44:25.457Z,35.43
2017-11-09T05:46:51.968Z,33.87
2017-11-09T05:49:18.047Z,105.03
2017-11-09T05:51:44.159Z,42.47
2017-11-09T05:54:10.567Z,40.63
2017-11-09T05:56:36.603Z,29.43
2017-11-09T05:59:02.653Z,37.97
2017-11-09T06:01:29.154Z,33.20
2017-11-09T06:03:55.530Z,56.00
2017-11-09T06:06:21.590Z,49.80
2017-11-09T06:08:48.044Z,62.60
2017-11-09T06:11:14.134Z,58.30
2017-11-09T06:13:40.171Z,52.17
2017-11-09T06:16:06.341Z,42.60
2017-11-09T06:18:32.450Z,36.73
2017-11-09T06:20:58.534Z,36.73
2017-11-09T06:23:25.008Z,32.57
2017-11-09T06:25:51.085Z,32.13
2017-11-09T06:28:17.167Z,36.50
2017-11-09T06:30:43.240Z,34.33
2017-11-09T06:33:09.316Z,38.57
2017-11-09T06:35:35.415Z,31.10
2017-11-09T06:38:01.877Z,32.23
2017-11-09T06:40:28.049Z,30.57
2017-11-09T06:42:54.180Z,28.27
2017-11-09T06:45:20.305Z,26.27
2017-11-09T06:47:46.462Z,30.30
2017-11-09T06:50:12.500Z,28.60
2017-11-09T06:52:38.950Z,30.97
2017-11-09T06:55:05.180Z,29.97
2017-11-09T06:57:31.287Z,34.13
2017-11-09T06:59:57.504Z,30.50
2017-11-09T07:02:23.555Z,35.50
2017-11-09T07:04:49.678Z,31.07
2017-11-09T07:07:16.136Z,29.33
2017-11-09T07:09:42.192Z,38.77
2017-11-09T07:12:08.279Z,33.43
2017-11-09T07:14:34.831Z,30.17
2017-11-09T07:17:00.920Z,33.20
2017-11-09T07:19:27.015Z,34.23
2017-11-09T07:21:53.412Z,38.33
2017-11-09T07:24:19.499Z,29.37
2017-11-09T07:26:45.623Z,34.30
2017-11-09T07:29:12.051Z,29.63
2017-11-09T07:31:38.272Z,32.17
2017-11-09T07:34:04.406Z,39.27
2017-11-09T07:36:30.908Z,26.33
2017-11-09T07:38:57.002Z,32.87
2017-11-09T07:41:23.119Z,28.03
2017-11-09T07:43:49.579Z,30.70
2017-11-09T07:46:15.691Z,31.20
2017-11-09T07:48:41.796Z,29.93
2017-11-09T07:51:08.285Z,32.07
2017-11-09T07:53:34.372Z,32.20
2017-11-09T07:56:00.512Z,27.43
2017-11-09T07:58:27.081Z,29.43
2017-11-09T08:00:53.144Z,27.70
2017-11-09T08:03:19.208Z,29.30
2017-11-09T08:05:45.691Z,32.07
2017-11-09T08:08:11.778Z,30.90
2017-11-09T08:10:37.866Z,29.63
2017-11-09T08:13:04.350Z,29.03
2017-11-09T08:15:30.437Z,34.83
2017-11-09T08:17:56.504Z,46.20
2017-11-09T08:20:22.947Z,36.47
2017-11-09T08:22:49.027Z,33.20
2017-11-09T08:25:18.071Z,30.03
2017-11-09T08:27:46.075Z,27.27
2017-11-09T08:30:14.354Z,23.87
2017-11-09T08:32:43.580Z,30.90
2017-11-09T08:35:09.645Z,25.67
2017-11-09T08:37:35.743Z,26.50
2017-11-09T08:40:02.193Z,31.13
2017-11-09T08:42:28.232Z,39.10
2017-11-09T08:44:54.464Z,32.13
2017-11-09T08:47:20.617Z,32.80
2017-11-09T08:49:46.723Z,26.77
2017-11-09T08:52:13.232Z,33.83
2017-11-09T08:54:39.313Z,34.27
2017-11-09T08:57:05.368Z,33.30
2017-11-09T08:59:31.497Z,31.43
2017-11-09T09:01:57.665Z,31.20
2017-11-09T09:04:24.179Z,37.53
2017-11-09T09:06:50.231Z,33.27
2017-11-09T09:09:16.340Z,34.87
2017-11-09T09:11:42.443Z,35.00
2017-11-09T09:14:08.553Z,31.20
2017-11-09T09:16:35.039Z,41.77
2017-11-09T09:19:01.173Z,34.57
2017-11-09T09:21:31.132Z,39.10
2017-11-09T09:23:58.120Z,34.33
2017-11-09T09:29:32.411Z,36.20
2017-11-09T09:31:58.920Z,34.20
2017-11-09T09:34:27.693Z,33.13
2017-11-09T09:36:55.412Z,37.07
2017-11-09T09:39:23.803Z,38.00
2017-11-09T09:41:49.927Z,28.30
2017-11-09T09:44:16.420Z,38.50
2017-11-09T09:46:42.559Z,30.00
2017-11-09T09:49:08.653Z,32.83
2017-11-09T09:51:35.323Z,31.50
2017-11-09T09:54:01.457Z,29.83
2017-11-09T09:56:27.544Z,31.47
2017-11-09T09:58:54.100Z,36.37
2017-11-09T10:01:20.244Z,31.77
2017-11-09T10:03:46.333Z,28.10
2017-11-09T10:06:12.464Z,34.40
2017-11-09T10:08:38.543Z,35.00
2017-11-09T10:11:05.071Z,36.57
2017-11-09T10:13:31.150Z,30.23
2017-11-09T10:15:57.303Z,28.13
2017-11-09T10:18:23.461Z,30.50
2017-11-09T10:20:49.561Z,39.33
2017-11-09T10:23:16.079Z,33.67
2017-11-09T10:25:42.143Z,39.63
2017-11-09T10:28:10.131Z,32.97
2017-11-09T10:30:36.244Z,41.53
2017-11-09T10:33:02.364Z,33.50
2017-11-09T10:35:28.867Z,32.60
2017-11-09T10:37:54.888Z,25.67
2017-11-09T10:40:20.949Z,24.03
2017-11-09T10:42:47.468Z,29.40
2017-11-09T10:45:13.593Z,30.60
2017-11-09T10:47:39.725Z,23.10
2017-11-09T10:50:05.808Z,24.97
2017-11-09T10:52:31.895Z,23.00
2017-11-09T10:54:58.303Z,21.50
2017-11-09T10:57:24.435Z,27.80
2017-11-09T10:59:50.526Z,20.60
2017-11-09T11:02:16.982Z,19.80
2017-11-09T11:04:43.045Z,20.03
2017-11-09T11:07:09.142Z,18.17
2017-11-09T11:09:35.588Z,20.40
2017-11-09T11:12:01.668Z,27.20
2017-11-09T11:14:27.745Z,21.30
2017-11-09T11:16:54.207Z,26.03
2017-11-09T11:19:20.272Z,23.47
2017-11-09T11:21:49.140Z,23.53
2017-11-09T11:24:15.594Z,23.30
2017-11-09T11:26:41.672Z,19.03
2017-11-09T11:29:07.706Z,19.70
2017-11-09T11:31:34.093Z,24.93
2017-11-09T11:34:00.188Z,27.37
2017-11-09T11:36:26.323Z,23.83
2017-11-09T11:38:52.458Z,20.63
2017-11-09T11:41:18.609Z,18.80
2017-11-09T11:43:45.147Z,24.50
2017-11-09T11:46:12.222Z,20.40
2017-11-09T11:48:38.464Z,19.70
2017-11-09T11:51:04.539Z,22.77
2017-11-09T11:53:30.721Z,19.87
2017-11-09T11:55:57.240Z,19.40
2017-11-09T11:58:23.318Z,17.57
2017-11-09T12:00:49.423Z,19.10
2017-11-09T12:03:15.507Z,20.53
2017-11-09T12:05:41.543Z,22.20
2017-11-09T12:08:07.980Z,20.50
2017-11-09T12:10:34.100Z,17.03
2017-11-09T12:13:00.189Z,23.13
2017-11-09T12:15:26.767Z,22.97
2017-11-09T12:17:52.874Z,25.90
2017-11-09T12:20:18.921Z,25.70
2017-11-09T12:22:45.049Z,22.93
2017-11-09T12:25:11.149Z,26.57
2017-11-09T12:27:37.609Z,25.60
2017-11-09T12:30:03.796Z,24.80
2017-11-09T12:32:29.869Z,23.67
2017-11-09T12:34:56.404Z,22.10
2017-11-09T12:37:22.555Z,24.40
2017-11-09T12:39:48.735Z,27.43
2017-11-09T12:42:15.211Z,22.80
2017-11-09T12:44:41.308Z,23.60
2017-11-09T12:47:07.388Z,24.20
2017-11-09T12:49:33.506Z,22.47
2017-11-09T12:51:59.611Z,22.60
2017-11-09T12:54:26.032Z,25.13
2017-11-09T12:56:52.195Z,23.00
2017-11-09T12:59:18.339Z,25.67
2017-11-09T13:01:44.818Z,24.20
2017-11-09T13:04:10.952Z,29.47
2017-11-09T13:06:37.107Z,28.23
2017-11-09T13:09:03.637Z,27.20
2017-11-09T13:11:29.724Z,24.50
2017-11-09T13:13:55.883Z,24.70
2017-11-09T13:16:22.408Z,22.40
2017-11-09T13:18:48.495Z,23.67
2017-11-09T13:21:14.687Z,29.77
2017-11-09T13:23:41.211Z,28.53
2017-11-09T13:26:07.327Z,27.10
2017-11-09T13:28:33.497Z,29.93
2017-11-09T13:30:59.655Z,22.30
2017-11-09T13:33:25.800Z,25.30
2017-11-09T13:35:52.355Z,24.57
2017-11-09T13:38:18.470Z,25.77
2017-11-09T13:40:44.644Z,24.93
2017-11-09T13:43:10.840Z,24.77
2017-11-09T13:45:39.952Z,25.37
2017-11-09T13:48:06.464Z,23.67
2017-11-09T13:50:32.556Z,24.10
2017-11-09T13:52:58.640Z,29.67
2017-11-09T13:55:24.768Z,29.77
2017-11-09T13:57:50.896Z,28.93
2017-11-09T14:00:17.439Z,28.77
2017-11-09T14:02:43.532Z,26.77
2017-11-09T14:05:09.608Z,27.60
2017-11-09T14:07:35.740Z,29.17
2017-11-09T14:10:01.886Z,32.47
2017-11-09T14:12:28.485Z,30.07
2017-11-09T14:14:54.575Z,30.70
2017-11-09T14:17:20.691Z,36.50
2017-11-09T14:19:46.805Z,29.77
2017-11-09T14:22:12.884Z,30.13
2017-11-09T14:24:39.284Z,28.37
2017-11-09T14:27:05.397Z,32.40
2017-11-09T14:29:31.479Z,37.03
2017-11-09T14:31:57.994Z,36.23
2017-11-09T14:34:24.101Z,33.67
2017-11-09T14:36:50.139Z,31.50
2017-11-09T14:39:16.684Z,32.80
2017-11-09T14:41:42.764Z,32.37
2017-11-09T14:44:08.864Z,25.60
2017-11-09T14:46:34.955Z,31.10
2017-11-09T14:49:01.068Z,31.60
2017-11-09T14:51:27.632Z,31.57
2017-11-09T14:53:53.764Z,32.43
2017-11-09T14:56:19.900Z,31.33
2017-11-09T14:58:46.039Z,30.90
2017-11-09T15:01:12.191Z,28.27
2017-11-09T15:03:38.571Z,30.33
2017-11-09T15:06:04.641Z,29.93
2017-11-09T15:08:30.860Z,28.93
2017-11-09T15:10:57.060Z,34.20
2017-11-09T15:13:23.091Z,37.37
2017-11-09T15:15:54.596Z,34.17
2017-11-09T15:18:20.690Z,32.53
2017-11-09T15:20:46.824Z,33.30
2017-11-09T15:23:13.334Z,38.10
2017-11-09T15:25:39.463Z,28.17
2017-11-09T15:28:05.591Z,34.13
2017-11-09T15:30:32.074Z,35.13
2017-11-09T15:32:58.271Z,32.13
2017-11-09T15:35:27.320Z,33.50
2017-11-09T15:37:53.435Z,33.40
2017-11-09T15:40:19.548Z,33.87
2017-11-09T15:42:45.941Z,27.60
2017-11-09T15:45:12.049Z,38.07
2017-11-09T15:47:38.069Z,38.80
2017-11-09T15:50:04.165Z,35.77
2017-11-09T15:52:30.229Z,35.93
2017-11-09T15:54:56.680Z,36.50
2017-11-09T15:57:22.701Z,31.53
2017-11-09T15:59:48.756Z,40.10
2017-11-09T16:02:14.843Z,36.57
2017-11-09T16:04:41.027Z,30.50
2017-11-09T16:07:17.395Z,36.10
2017-11-09T16:09:43.520Z,32.80
2017-11-09T16:12:12.062Z,30.40
2017-11-09T16:14:38.204Z,43.37
2017-11-09T16:17:04.355Z,36.20
2017-11-09T16:19:30.864Z,36.37
2017-11-09T16:21:57.042Z,32.07
2017-11-09T16:24:23.104Z,37.47
2017-11-09T16:26:49.192Z,37.43
2017-11-09T16:29:15.284Z,37.67
2017-11-09T16:31:42.022Z,37.63
2017-11-09T16:34:08.493Z,37.63
2017-11-09T16:36:34.829Z,39.03
2017-11-09T16:39:01.894Z,36.67
2017-11-09T16:41:28.056Z,38.50
2017-11-09T16:43:54.579Z,48.73
2017-11-09T16:46:20.671Z,39.47
2017-11-09T16:48:46.813Z,34.27
2017-11-09T16:51:12.975Z,38.50
2017-11-09T16:53:39.052Z,35.53
2017-11-09T16:56:05.481Z,41.57
2017-11-09T16:58:31.582Z,35.47
2017-11-09T17:00:57.662Z,38.80
2017-11-09T17:03:24.116Z,39.80
2017-11-09T17:05:50.237Z,37.43
2017-11-09T17:08:16.520Z,37.07
2017-11-09T17:10:43.041Z,36.97
2017-11-09T17:13:09.100Z,36.50
2017-11-09T17:15:35.218Z,32.93
2017-11-09T17:18:01.363Z,36.00
2017-11-09T17:20:27.471Z,34.93
2017-11-09T17:22:53.960Z,32.87
2017-11-09T17:25:20.106Z,33.07
2017-11-09T17:27:46.222Z,33.70
2017-11-09T17:30:12.324Z,32.37
2017-11-09T17:32:38.438Z,30.80
2017-11-09T17:35:06.071Z,53.03
2017-11-09T17:37:32.116Z,45.63
2017-11-09T17:39:58.265Z,42.17
2017-11-09T17:42:26.600Z,43.00
2017-11-09T17:44:52.782Z,50.80
2017-11-09T17:47:18.883Z,45.50
2017-11-09T17:49:44.980Z,41.20
2017-11-09T17:52:11.087Z,41.07
2017-11-09T17:54:37.630Z,41.97
2017-11-09T17:57:03.743Z,40.43
2017-11-09T17:59:29.855Z,51.60
2017-11-09T18:01:56.398Z,52.93
2017-11-09T18:04:22.433Z,48.50
2017-11-09T18:06:48.619Z,51.03
2017-11-09T18:09:15.118Z,47.53
2017-11-09T18:11:41.268Z,42.40
2017-11-09T18:14:07.355Z,40.07
2017-11-09T18:16:33.538Z,45.07
2017-11-09T18:18:59.704Z,47.97
2017-11-09T18:21:26.156Z,47.93
2017-11-09T18:23:55.120Z,50.17
2017-11-09T18:26:21.229Z,40.93
2017-11-09T18:28:47.397Z,43.13
2017-11-09T18:31:13.519Z,39.93
2017-11-09T18:33:40.035Z,43.30
2017-11-09T18:36:06.210Z,40.17
2017-11-09T18:38:32.360Z,41.83
2017-11-09T18:40:58.890Z,45.73
2017-11-09T18:43:25.000Z,51.33
2017-11-09T18:45:51.095Z,52.80
2017-11-09T18:48:17.184Z,52.30
2017-11-09T18:50:43.274Z,56.53
2017-11-09T18:53:10.101Z,50.87
2017-11-09T18:55:36.205Z,46.07
2017-11-09T18:58:02.340Z,50.90
2017-11-09T19:00:28.503Z,44.67
2017-11-09T19:02:54.605Z,43.33
2017-11-09T19:05:21.058Z,46.83
2017-11-09T19:07:47.207Z,44.93
2017-11-09T19:10:13.327Z,45.87
2017-11-09T19:12:39.541Z,47.83
2017-11-09T19:15:05.660Z,48.57
2017-11-09T19:17:32.217Z,50.23
2017-11-09T19:19:58.396Z,48.27
2017-11-09T19:22:24.591Z,49.73
2017-11-09T19:24:51.145Z,48.40
2017-11-09T19:27:17.456Z,52.50
2017-11-09T19:29:43.696Z,46.63
2017-11-09T19:32:10.231Z,48.23
2017-11-09T19:34:36.443Z,44.80
2017-11-09T19:37:02.676Z,45.30
2017-11-09T19:39:28.967Z,51.40
2017-11-09T19:41:55.228Z,51.17
2017-11-09T19:44:21.955Z,46.27
2017-11-09T19:46:48.336Z,52.13
2017-11-09T19:49:14.556Z,48.53
2017-11-09T19:51:41.263Z,45.23
2017-11-09T19:54:07.552Z,46.20
2017-11-09T19:56:34.651Z,50.13
2017-11-09T19:59:01.381Z,46.80
2017-11-09T20:01:27.765Z,53.30
2017-11-09T20:03:54.093Z,49.47
2017-11-09T20:06:20.340Z,45.30
2017-11-09T20:08:46.657Z,50.73
2017-11-09T20:11:13.321Z,45.70
2017-11-09T20:13:39.604Z,47.73
2017-11-09T20:16:05.928Z,40.23
2017-11-09T20:18:32.634Z,38.20
2017-11-09T20:20:58.888Z,40.63
2017-11-09T20:23:25.276Z,38.73
2017-11-09T20:25:52.426Z,36.83
2017-11-09T20:28:18.799Z,39.03
2017-11-09T20:30:45.446Z,39.43
2017-11-09T20:33:15.690Z,39.20
2017-11-09T20:35:41.900Z,36.73
2017-11-09T20:38:08.154Z,37.93
2017-11-09T20:40:34.397Z,45.50
2017-11-09T20:43:01.096Z,32.03
2017-11-09T20:45:27.278Z,32.03
2017-11-09T20:47:53.499Z,38.00
2017-11-09T20:50:21.001Z,43.57
2017-11-09T20:52:47.127Z,41.33
2017-11-09T20:55:13.282Z,130.53
2017-11-09T20:57:39.868Z,49.70
2017-11-09T21:00:06.080Z,108.03
2017-11-09T21:02:32.211Z,52.40
2017-11-09T21:04:58.314Z,32.47
2017-11-09T21:07:24.496Z,31.03
2017-11-09T21:09:50.999Z,41.13
2017-11-09T21:12:17.224Z,41.93
2017-11-09T21:14:43.363Z,34.47
2017-11-09T21:17:09.977Z,36.23
2017-11-09T21:19:36.056Z,38.30
2017-11-09T21:22:03.110Z,31.30
2017-11-09T21:24:29.248Z,30.97
2017-11-09T21:26:55.272Z,37.53
2017-11-09T21:29:21.396Z,34.43
2017-11-09T21:31:47.508Z,33.13
2017-11-09T21:34:13.597Z,31.90
2017-11-09T21:36:39.706Z,30.87
2017-11-09T21:39:06.153Z,32.97
2017-11-09T21:41:32.176Z,33.80
2017-11-09T21:43:58.268Z,39.23
2017-11-09T21:46:24.711Z,40.03
2017-11-09T21:48:50.788Z,43.03
2017-11-09T21:51:16.872Z,42.97
2017-11-09T21:53:43.319Z,39.40
2017-11-09T21:56:09.427Z,39.67
2017-11-09T21:58:35.526Z,37.60
2017-11-09T22:01:02.002Z,37.40
2017-11-09T22:03:28.081Z,44.03
2017-11-09T22:05:54.183Z,43.23
2017-11-09T22:08:20.707Z,39.63
2017-11-09T22:10:46.852Z,43.13
2017-11-09T22:13:12.944Z,45.63
2017-11-09T22:15:39.481Z,49.10
2017-11-09T22:18:05.517Z,44.17
2017-11-09T22:20:31.651Z,47.47
2017-11-09T22:22:58.191Z,47.93
2017-11-09T22:25:24.285Z,48.17
2017-11-09T22:27:50.344Z,43.83
2017-11-09T22:30:16.419Z,46.20
2017-11-09T22:32:42.522Z,44.23
2017-11-09T22:35:09.007Z,48.13
2017-11-09T22:37:35.104Z,43.47
2017-11-09T22:40:01.187Z,54.57
2017-11-09T22:42:27.707Z,53.37
2017-11-09T22:44:53.780Z,44.83
2017-11-09T22:47:19.931Z,50.23
2017-11-09T22:49:46.040Z,41.40
2017-11-09T22:52:12.143Z,46.33
2017-11-09T22:54:38.657Z,50.43
2017-11-09T22:57:04.731Z,42.43
2017-11-09T22:59:31.008Z,56.60
2017-11-09T23:01:57.431Z,48.73
2017-11-09T23:04:23.523Z,43.67
2017-11-09T23:06:49.591Z,49.33
2017-11-09T23:09:15.695Z,44.40
2017-11-09T23:11:41.818Z,45.90
2017-11-09T23:14:08.278Z,48.50
2017-11-09T23:16:34.310Z,49.20
2017-11-09T23:19:00.542Z,51.40
2017-11-09T23:21:26.705Z,48.20
2017-11-09T23:23:52.824Z,46.40
2017-11-09T23:26:19.236Z,52.60
2017-11-09T23:28:45.368Z,48.90
2017-11-09T23:31:11.437Z,50.40
2017-11-09T23:33:37.592Z,53.23
2017-11-09T23:36:03.736Z,48.23
2017-11-09T23:38:30.152Z,49.67
2017-11-09T23:40:56.229Z,50.30
2017-11-09T23:43:22.294Z,48.73
2017-11-09T23:45:48.408Z,57.83
2017-11-09T23:48:14.486Z,55.83
2017-11-09T23:50:41.027Z,49.30
2017-11-09T23:53:07.087Z,41.30
2017-11-09T23:55:33.207Z,48.43
2017-11-09T23:57:59.335Z,48.63
